sensor_id;sensor_type;location;lat;lon;timestamp;P1;durP1;ratioP1;P2;durP2;ratioP2
15012;SDS011;7603;49.432;11.418;2024-03-06T00:01:37;34.33;;;22.58;;
15012;SDS011;7603;49.432;11.418;2024-03-06T00:04:03;31.55;;;22.45;;
15012;SDS011;7603;49.432;11.418;2024-03-06T00:06:29;38.97;;;23.13;;
15012;SDS011;7603;49.432;11.418;2024-03-06T00:08:55;35.45;;;23.42;;
15012;SDS011;7603;49.432;11.418;2024-03-06T00:11:21;37.03;;;24.70;;
15012;SDS011;7603;49.432;11.418;2024-03-06T00:13:47;36.28;;;24.13;;
15012;SDS011;7603;49.432;11.418;2024-03-06T00:16:13;37.30;;;23.88;;
15012;SDS011;7603;49.432;11.418;2024-03-06T00:18:39;34.65;;;23.35;;
15012;SDS011;7603;49.432;11.418;2024-03-06T00:21:05;36.88;;;24.27;;
15012;SDS011;7603;49.432;11.418;2024-03-06T00:23:31;40.75;;;23.23;;
15012;SDS011;7603;49.432;11.418;2024-03-06T00:25:57;37.60;;;24.10;;
15012;SDS011;7603;49.432;11.418;2024-03-06T00:28:23;38.47;;;24.73;;
15012;SDS011;7603;49.432;11.418;2024-03-06T00:30:49;37.00;;;25.20;;
15012;SDS011;7603;49.432;11.418;2024-03-06T00:33:15;37.65;;;25.33;;
15012;SDS011;7603;49.432;11.418;2024-03-06T00:35:40;42.20;;;25.17;;
15012;SDS011;7603;49.432;11.418;2024-03-06T00:38:06;35.60;;;23.75;;
15012;SDS011;7603;49.432;11.418;2024-03-06T00:40:32;37.08;;;24.27;;
15012;SDS011;7603;49.432;11.418;2024-03-06T00:42:58;39.13;;;25.08;;
15012;SDS011;7603;49.432;11.418;2024-03-06T00:45:24;40.75;;;25.02;;
15012;SDS011;7603;49.432;11.418;2024-03-06T00:47:49;36.05;;;24.27;;
15012;SDS011;7603;49.432;11.418;2024-03-06T00:50:15;35.22;;;23.52;;
15012;SDS011;7603;49.432;11.418;2024-03-06T00:52:44;40.08;;;24.63;;
15012;SDS011;7603;49.432;11.418;2024-03-06T00:55:10;37.85;;;25.75;;
15012;SDS011;7603;49.432;11.418;2024-03-06T00:57:36;41.92;;;26.40;;
15012;SDS011;7603;49.432;11.418;2024-03-06T01:00:02;38.85;;;25.75;;
15012;SDS011;7603;49.432;11.418;2024-03-06T01:02:35;43.65;;;25.98;;
15012;SDS011;7603;49.432;11.418;2024-03-06T01:05:05;40.17;;;26.17;;
15012;SDS011;7603;49.432;11.418;2024-03-06T01:07:32;44.70;;;26.58;;
15012;SDS011;7603;49.432;11.418;2024-03-06T01:09:59;44.83;;;27.90;;
15012;SDS011;7603;49.432;11.418;2024-03-06T01:12:26;45.38;;;26.92;;
15012;SDS011;7603;49.432;11.418;2024-03-06T01:14:51;40.33;;;25.40;;
15012;SDS011;7603;49.432;11.418;2024-03-06T01:17:17;42.88;;;27.83;;
15012;SDS011;7603;49.432;11.418;2024-03-06T01:19:43;46.53;;;28.90;;
15012;SDS011;7603;49.432;11.418;2024-03-06T01:22:09;49.85;;;29.20;;
15012;SDS011;7603;49.432;11.418;2024-03-06T01:24:35;51.10;;;29.00;;
15012;SDS011;7603;49.432;11.418;2024-03-06T01:27:01;49.67;;;29.88;;
15012;SDS011;7603;49.432;11.418;2024-03-06T01:29:28;47.65;;;28.95;;
15012;SDS011;7603;49.432;11.418;2024-03-06T01:31:54;57.38;;;30.83;;
15012;SDS011;7603;49.432;11.418;2024-03-06T01:34:19;56.45;;;30.92;;
15012;SDS011;7603;49.432;11.418;2024-03-06T01:36:45;51.85;;;29.55;;
15012;SDS011;7603;49.432;11.418;2024-03-06T01:39:11;57.58;;;32.20;;
15012;SDS011;7603;49.432;11.418;2024-03-06T01:41:36;56.08;;;30.58;;
15012;SDS011;7603;49.432;11.418;2024-03-06T01:44:02;62.90;;;32.05;;
15012;SDS011;7603;49.432;11.418;2024-03-06T01:46:31;52.45;;;31.00;;
15012;SDS011;7603;49.432;11.418;2024-03-06T01:48:56;53.88;;;29.98;;
15012;SDS011;7603;49.432;11.418;2024-03-06T01:51:22;54.78;;;31.83;;
15012;SDS011;7603;49.432;11.418;2024-03-06T01:53:49;50.35;;;29.83;;
15012;SDS011;7603;49.432;11.418;2024-03-06T01:56:16;57.47;;;31.30;;
15012;SDS011;7603;49.432;11.418;2024-03-06T01:58:42;60.13;;;32.20;;
15012;SDS011;7603;49.432;11.418;2024-03-06T02:01:11;57.05;;;31.27;;
15012;SDS011;7603;49.432;11.418;2024-03-06T02:03:37;60.20;;;32.30;;
15012;SDS011;7603;49.432;11.418;2024-03-06T02:06:03;65.75;;;32.55;;
15012;SDS011;7603;49.432;11.418;2024-03-06T02:08:30;63.83;;;34.13;;
15012;SDS011;7603;49.432;11.418;2024-03-06T02:10:57;66.72;;;34.67;;
15012;SDS011;7603;49.432;11.418;2024-03-06T02:13:25;70.45;;;34.35;;
15012;SDS011;7603;49.432;11.418;2024-03-06T02:15:51;57.20;;;33.13;;
15012;SDS011;7603;49.432;11.418;2024-03-06T02:18:16;67.20;;;34.67;;
15012;SDS011;7603;49.432;11.418;2024-03-06T02:20:42;71.25;;;34.17;;
15012;SDS011;7603;49.432;11.418;2024-03-06T02:23:07;60.72;;;32.90;;
15012;SDS011;7603;49.432;11.418;2024-03-06T02:25:33;55.40;;;33.10;;
15012;SDS011;7603;49.432;11.418;2024-03-06T02:27:59;64.53;;;33.03;;
15012;SDS011;7603;49.432;11.418;2024-03-06T02:30:24;60.85;;;33.25;;
15012;SDS011;7603;49.432;11.418;2024-03-06T02:32:50;65.10;;;33.42;;
15012;SDS011;7603;49.432;11.418;2024-03-06T02:35:16;65.65;;;32.42;;
15012;SDS011;7603;49.432;11.418;2024-03-06T02:37:43;61.05;;;32.72;;
15012;SDS011;7603;49.432;11.418;2024-03-06T02:40:09;59.33;;;33.35;;
15012;SDS011;7603;49.432;11.418;2024-03-06T02:42:35;71.90;;;35.20;;
15012;SDS011;7603;49.432;11.418;2024-03-06T02:45:04;57.30;;;31.15;;
15012;SDS011;7603;49.432;11.418;2024-03-06T02:47:32;63.25;;;32.40;;
15012;SDS011;7603;49.432;11.418;2024-03-06T02:49:58;70.60;;;34.10;;
15012;SDS011;7603;49.432;11.418;2024-03-06T02:52:24;68.88;;;35.88;;
15012;SDS011;7603;49.432;11.418;2024-03-06T02:54:50;56.05;;;32.10;;
15012;SDS011;7603;49.432;11.418;2024-03-06T02:57:15;62.60;;;34.70;;
15012;SDS011;7603;49.432;11.418;2024-03-06T02:59:42;66.03;;;33.58;;
15012;SDS011;7603;49.432;11.418;2024-03-06T03:02:08;58.42;;;32.03;;
15012;SDS011;7603;49.432;11.418;2024-03-06T03:04:33;63.65;;;34.00;;
15012;SDS011;7603;49.432;11.418;2024-03-06T03:06:59;64.57;;;33.58;;
15012;SDS011;7603;49.432;11.418;2024-03-06T03:09:24;58.03;;;32.03;;
15012;SDS011;7603;49.432;11.418;2024-03-06T03:11:50;58.33;;;32.25;;
15012;SDS011;7603;49.432;11.418;2024-03-06T03:14:16;67.47;;;33.97;;
15012;SDS011;7603;49.432;11.418;2024-03-06T03:16:41;55.00;;;30.70;;
15012;SDS011;7603;49.432;11.418;2024-03-06T03:19:07;66.43;;;34.42;;
15012;SDS011;7603;49.432;11.418;2024-03-06T03:21:33;64.03;;;33.45;;
15012;SDS011;7603;49.432;11.418;2024-03-06T03:23:59;58.95;;;33.17;;
15012;SDS011;7603;49.432;11.418;2024-03-06T03:26:25;64.30;;;34.03;;
15012;SDS011;7603;49.432;11.418;2024-03-06T03:28:51;68.47;;;35.35;;
15012;SDS011;7603;49.432;11.418;2024-03-06T03:31:16;61.88;;;33.50;;
15012;SDS011;7603;49.432;11.418;2024-03-06T03:33:42;65.38;;;33.20;;
15012;SDS011;7603;49.432;11.418;2024-03-06T03:36:08;64.78;;;33.53;;
15012;SDS011;7603;49.432;11.418;2024-03-06T03:38:37;69.65;;;34.58;;
15012;SDS011;7603;49.432;11.418;2024-03-06T03:41:09;58.72;;;30.90;;
15012;SDS011;7603;49.432;11.418;2024-03-06T03:43:35;60.90;;;32.92;;
15012;SDS011;7603;49.432;11.418;2024-03-06T03:46:01;61.88;;;33.95;;
15012;SDS011;7603;49.432;11.418;2024-03-06T03:48:27;56.67;;;30.48;;
15012;SDS011;7603;49.432;11.418;2024-03-06T03:50:53;58.15;;;31.27;;
15012;SDS011;7603;49.432;11.418;2024-03-06T03:53:18;58.22;;;31.42;;
15012;SDS011;7603;49.432;11.418;2024-03-06T03:55:44;52.83;;;31.13;;
15012;SDS011;7603;49.432;11.418;2024-03-06T03:58:09;50.67;;;30.65;;
15012;SDS011;7603;49.432;11.418;2024-03-06T04:00:35;51.72;;;28.75;;
15012;SDS011;7603;49.432;11.418;2024-03-06T04:03:03;50.92;;;27.27;;
15012;SDS011;7603;49.432;11.418;2024-03-06T04:05:29;55.60;;;30.13;;
15012;SDS011;7603;49.432;11.418;2024-03-06T04:07:54;54.67;;;30.27;;
15012;SDS011;7603;49.432;11.418;2024-03-06T04:10:20;49.55;;;28.92;;
15012;SDS011;7603;49.432;11.418;2024-03-06T04:12:46;53.72;;;28.55;;
15012;SDS011;7603;49.432;11.418;2024-03-06T04:15:11;47.92;;;27.67;;
15012;SDS011;7603;49.432;11.418;2024-03-06T04:17:37;51.35;;;26.90;;
15012;SDS011;7603;49.432;11.418;2024-03-06T04:20:03;44.30;;;26.52;;
15012;SDS011;7603;49.432;11.418;2024-03-06T04:22:31;45.88;;;27.27;;
15012;SDS011;7603;49.432;11.418;2024-03-06T04:24:56;48.63;;;27.05;;
15012;SDS011;7603;49.432;11.418;2024-03-06T04:27:23;42.92;;;24.48;;
15012;SDS011;7603;49.432;11.418;2024-03-06T04:29:51;44.85;;;26.70;;
15012;SDS011;7603;49.432;11.418;2024-03-06T04:32:17;49.17;;;26.52;;
15012;SDS011;7603;49.432;11.418;2024-03-06T04:34:43;45.10;;;26.23;;
15012;SDS011;7603;49.432;11.418;2024-03-06T04:37:09;46.88;;;26.08;;
15012;SDS011;7603;49.432;11.418;2024-03-06T04:39:34;47.60;;;26.42;;
15012;SDS011;7603;49.432;11.418;2024-03-06T04:42:00;47.88;;;27.13;;
15012;SDS011;7603;49.432;11.418;2024-03-06T04:44:25;52.25;;;26.92;;
15012;SDS011;7603;49.432;11.418;2024-03-06T04:46:51;43.78;;;24.75;;
15012;SDS011;7603;49.432;11.418;2024-03-06T04:49:17;40.95;;;24.65;;
15012;SDS011;7603;49.432;11.418;2024-03-06T04:51:42;46.03;;;26.02;;
15012;SDS011;7603;49.432;11.418;2024-03-06T04:54:08;46.78;;;24.13;;
15012;SDS011;7603;49.432;11.418;2024-03-06T04:56:33;37.60;;;23.45;;
15012;SDS011;7603;49.432;11.418;2024-03-06T04:58:59;42.50;;;24.00;;
15012;SDS011;7603;49.432;11.418;2024-03-06T05:01:28;41.45;;;24.65;;
15012;SDS011;7603;49.432;11.418;2024-03-06T05:03:54;43.47;;;23.42;;
15012;SDS011;7603;49.432;11.418;2024-03-06T05:06:21;41.88;;;24.42;;
15012;SDS011;7603;49.432;11.418;2024-03-06T05:08:47;45.15;;;24.20;;
15012;SDS011;7603;49.432;11.418;2024-03-06T05:11:13;41.88;;;22.88;;
15012;SDS011;7603;49.432;11.418;2024-03-06T05:13:39;39.72;;;22.27;;
15012;SDS011;7603;49.432;11.418;2024-03-06T05:16:05;41.63;;;23.20;;
15012;SDS011;7603;49.432;11.418;2024-03-06T05:18:33;37.30;;;21.48;;
15012;SDS011;7603;49.432;11.418;2024-03-06T05:20:59;37.30;;;22.85;;
15012;SDS011;7603;49.432;11.418;2024-03-06T05:23:25;40.47;;;22.90;;
15012;SDS011;7603;49.432;11.418;2024-03-06T05:25:51;38.80;;;23.52;;
15012;SDS011;7603;49.432;11.418;2024-03-06T05:28:16;39.38;;;23.98;;
15012;SDS011;7603;49.432;11.418;2024-03-06T05:30:42;40.53;;;22.88;;
15012;SDS011;7603;49.432;11.418;2024-03-06T05:33:08;39.33;;;21.63;;
15012;SDS011;7603;49.432;11.418;2024-03-06T05:35:33;39.47;;;22.60;;
15012;SDS011;7603;49.432;11.418;2024-03-06T05:37:59;34.80;;;21.65;;
15012;SDS011;7603;49.432;11.418;2024-03-06T05:40:24;36.60;;;20.98;;
15012;SDS011;7603;49.432;11.418;2024-03-06T05:42:50;36.72;;;22.10;;
15012;SDS011;7603;49.432;11.418;2024-03-06T05:45:16;52.47;;;29.13;;
15012;SDS011;7603;49.432;11.418;2024-03-06T05:47:42;41.55;;;26.08;;
15012;SDS011;7603;49.432;11.418;2024-03-06T05:50:07;38.42;;;23.80;;
15012;SDS011;7603;49.432;11.418;2024-03-06T05:52:35;38.78;;;23.20;;
15012;SDS011;7603;49.432;11.418;2024-03-06T05:55:02;35.22;;;21.80;;
15012;SDS011;7603;49.432;11.418;2024-03-06T05:57:31;46.03;;;24.02;;
15012;SDS011;7603;49.432;11.418;2024-03-06T05:59:57;36.45;;;21.08;;
15012;SDS011;7603;49.432;11.418;2024-03-06T06:02:23;40.28;;;23.48;;
15012;SDS011;7603;49.432;11.418;2024-03-06T06:04:48;35.80;;;21.73;;
15012;SDS011;7603;49.432;11.418;2024-03-06T06:07:15;40.35;;;23.00;;
15012;SDS011;7603;49.432;11.418;2024-03-06T06:09:40;38.42;;;24.33;;
15012;SDS011;7603;49.432;11.418;2024-03-06T06:12:06;35.13;;;23.15;;
15012;SDS011;7603;49.432;11.418;2024-03-06T06:14:32;32.47;;;20.50;;
15012;SDS011;7603;49.432;11.418;2024-03-06T06:16:57;32.25;;;21.25;;
15012;SDS011;7603;49.432;11.418;2024-03-06T06:19:23;31.50;;;20.85;;
15012;SDS011;7603;49.432;11.418;2024-03-06T06:21:48;35.55;;;21.63;;
15012;SDS011;7603;49.432;11.418;2024-03-06T06:24:16;31.23;;;21.25;;
15012;SDS011;7603;49.432;11.418;2024-03-06T06:26:42;33.20;;;21.90;;
15012;SDS011;7603;49.432;11.418;2024-03-06T06:29:07;33.85;;;21.23;;
15012;SDS011;7603;49.432;11.418;2024-03-06T06:31:33;32.85;;;20.92;;
15012;SDS011;7603;49.432;11.418;2024-03-06T06:33:58;33.63;;;21.27;;
15012;SDS011;7603;49.432;11.418;2024-03-06T06:36:25;33.03;;;21.20;;
15012;SDS011;7603;49.432;11.418;2024-03-06T06:38:52;34.80;;;22.52;;
15012;SDS011;7603;49.432;11.418;2024-03-06T06:41:18;32.60;;;20.90;;
15012;SDS011;7603;49.432;11.418;2024-03-06T06:43:44;31.58;;;21.08;;
15012;SDS011;7603;49.432;11.418;2024-03-06T06:46:10;36.63;;;21.63;;
15012;SDS011;7603;49.432;11.418;2024-03-06T06:48:36;32.33;;;19.90;;
15012;SDS011;7603;49.432;11.418;2024-03-06T06:51:02;33.08;;;21.42;;
15012;SDS011;7603;49.432;11.418;2024-03-06T06:53:31;31.90;;;21.02;;
15012;SDS011;7603;49.432;11.418;2024-03-06T06:55:57;30.92;;;19.83;;
15012;SDS011;7603;49.432;11.418;2024-03-06T06:58:23;33.30;;;21.67;;
15012;SDS011;7603;49.432;11.418;2024-03-06T07:00:49;41.65;;;22.95;;
15012;SDS011;7603;49.432;11.418;2024-03-06T07:03:15;31.25;;;19.90;;
15012;SDS011;7603;49.432;11.418;2024-03-06T07:05:41;35.17;;;22.02;;
15012;SDS011;7603;49.432;11.418;2024-03-06T07:08:07;32.63;;;21.60;;
15012;SDS011;7603;49.432;11.418;2024-03-06T07:10:33;34.90;;;22.40;;
15012;SDS011;7603;49.432;11.418;2024-03-06T07:13:00;38.22;;;23.45;;
15012;SDS011;7603;49.432;11.418;2024-03-06T07:15:27;36.22;;;23.35;;
15012;SDS011;7603;49.432;11.418;2024-03-06T07:17:53;41.85;;;27.17;;
15012;SDS011;7603;49.432;11.418;2024-03-06T07:20:19;37.13;;;24.88;;
15012;SDS011;7603;49.432;11.418;2024-03-06T07:22:45;38.00;;;22.75;;
15012;SDS011;7603;49.432;11.418;2024-03-06T07:25:10;39.53;;;23.40;;
15012;SDS011;7603;49.432;11.418;2024-03-06T07:27:36;35.85;;;23.17;;
15012;SDS011;7603;49.432;11.418;2024-03-06T07:30:02;36.55;;;23.40;;
15012;SDS011;7603;49.432;11.418;2024-03-06T07:32:27;38.45;;;23.95;;
15012;SDS011;7603;49.432;11.418;2024-03-06T07:34:53;38.30;;;23.35;;
15012;SDS011;7603;49.432;11.418;2024-03-06T07:37:19;36.67;;;23.42;;
15012;SDS011;7603;49.432;11.418;2024-03-06T07:39:44;38.03;;;24.38;;
15012;SDS011;7603;49.432;11.418;2024-03-06T07:42:10;35.60;;;24.27;;
15012;SDS011;7603;49.432;11.418;2024-03-06T07:44:36;40.65;;;24.55;;
15012;SDS011;7603;49.432;11.418;2024-03-06T07:47:02;39.22;;;24.17;;
15012;SDS011;7603;49.432;11.418;2024-03-06T07:49:28;41.15;;;22.98;;
15012;SDS011;7603;49.432;11.418;2024-03-06T07:51:54;34.28;;;22.98;;
15012;SDS011;7603;49.432;11.418;2024-03-06T07:54:20;33.08;;;22.05;;
15012;SDS011;7603;49.432;11.418;2024-03-06T07:56:45;34.00;;;22.20;;
15012;SDS011;7603;49.432;11.418;2024-03-06T07:59:12;35.58;;;22.92;;
15012;SDS011;7603;49.432;11.418;2024-03-06T08:01:38;32.47;;;21.05;;
15012;SDS011;7603;49.432;11.418;2024-03-06T08:04:04;36.13;;;22.98;;
15012;SDS011;7603;49.432;11.418;2024-03-06T08:06:30;29.40;;;20.35;;
15012;SDS011;7603;49.432;11.418;2024-03-06T08:08:58;32.83;;;21.05;;
15012;SDS011;7603;49.432;11.418;2024-03-06T08:11:24;32.25;;;21.42;;
15012;SDS011;7603;49.432;11.418;2024-03-06T08:13:50;31.17;;;21.83;;
15012;SDS011;7603;49.432;11.418;2024-03-06T08:16:21;27.52;;;20.85;;
15012;SDS011;7603;49.432;11.418;2024-03-06T08:18:47;29.60;;;21.48;;
15012;SDS011;7603;49.432;11.418;2024-03-06T08:21:13;27.58;;;20.33;;
15012;SDS011;7603;49.432;11.418;2024-03-06T08:23:38;33.13;;;22.02;;
15012;SDS011;7603;49.432;11.418;2024-03-06T08:26:04;29.25;;;20.38;;
15012;SDS011;7603;49.432;11.418;2024-03-06T08:28:29;27.55;;;20.15;;
15012;SDS011;7603;49.432;11.418;2024-03-06T08:30:55;27.50;;;20.92;;
15012;SDS011;7603;49.432;11.418;2024-03-06T08:33:21;29.88;;;20.50;;
15012;SDS011;7603;49.432;11.418;2024-03-06T08:35:47;29.33;;;21.35;;
15012;SDS011;7603;49.432;11.418;2024-03-06T08:38:13;32.55;;;21.83;;
15012;SDS011;7603;49.432;11.418;2024-03-06T08:40:39;33.00;;;21.48;;
15012;SDS011;7603;49.432;11.418;2024-03-06T08:43:07;27.23;;;19.92;;
15012;SDS011;7603;49.432;11.418;2024-03-06T08:45:34;30.42;;;20.88;;
15012;SDS011;7603;49.432;11.418;2024-03-06T08:47:59;30.13;;;20.77;;
15012;SDS011;7603;49.432;11.418;2024-03-06T08:50:25;31.25;;;20.25;;
15012;SDS011;7603;49.432;11.418;2024-03-06T08:52:51;30.98;;;21.42;;
15012;SDS011;7603;49.432;11.418;2024-03-06T08:55:16;30.75;;;20.10;;
15012;SDS011;7603;49.432;11.418;2024-03-06T08:57:42;32.47;;;21.85;;
15012;SDS011;7603;49.432;11.418;2024-03-06T09:00:08;37.28;;;22.48;;
15012;SDS011;7603;49.432;11.418;2024-03-06T09:02:37;34.35;;;20.63;;
15012;SDS011;7603;49.432;11.418;2024-03-06T09:05:06;31.48;;;20.75;;
15012;SDS011;7603;49.432;11.418;2024-03-06T09:07:35;33.22;;;20.75;;
15012;SDS011;7603;49.432;11.418;2024-03-06T09:10:06;37.45;;;21.60;;
15012;SDS011;7603;49.432;11.418;2024-03-06T09:12:32;38.97;;;23.70;;
15012;SDS011;7603;49.432;11.418;2024-03-06T09:14:58;44.08;;;24.90;;
15012;SDS011;7603;49.432;11.418;2024-03-06T09:17:27;28.35;;;18.70;;
15012;SDS011;7603;49.432;11.418;2024-03-06T09:19:53;29.48;;;19.92;;
15012;SDS011;7603;49.432;11.418;2024-03-06T09:22:19;31.30;;;21.73;;
15012;SDS011;7603;49.432;11.418;2024-03-06T09:24:45;30.52;;;20.60;;
15012;SDS011;7603;49.432;11.418;2024-03-06T09:27:10;31.13;;;21.23;;
15012;SDS011;7603;49.432;11.418;2024-03-06T09:29:37;30.73;;;21.77;;
15012;SDS011;7603;49.432;11.418;2024-03-06T09:32:02;32.67;;;21.88;;
15012;SDS011;7603;49.432;11.418;2024-03-06T09:34:28;31.90;;;22.35;;
15012;SDS011;7603;49.432;11.418;2024-03-06T09:36:54;29.20;;;20.70;;
15012;SDS011;7603;49.432;11.418;2024-03-06T09:39:19;28.45;;;20.80;;
15012;SDS011;7603;49.432;11.418;2024-03-06T09:41:48;28.33;;;21.08;;
15012;SDS011;7603;49.432;11.418;2024-03-06T09:44:15;24.38;;;19.23;;
15012;SDS011;7603;49.432;11.418;2024-03-06T09:46:45;27.05;;;21.25;;
15012;SDS011;7603;49.432;11.418;2024-03-06T09:49:14;27.08;;;20.90;;
15012;SDS011;7603;49.432;11.418;2024-03-06T09:51:48;25.63;;;20.02;;
15012;SDS011;7603;49.432;11.418;2024-03-06T09:54:15;24.88;;;18.80;;
15012;SDS011;7603;49.432;11.418;2024-03-06T09:56:44;21.17;;;18.42;;
15012;SDS011;7603;49.432;11.418;2024-03-06T09:59:11;22.88;;;19.23;;
15012;SDS011;7603;49.432;11.418;2024-03-06T10:04:18;20.63;;;18.50;;
15012;SDS011;7603;49.432;11.418;2024-03-06T10:06:45;22.17;;;18.77;;
15012;SDS011;7603;49.432;11.418;2024-03-06T10:09:11;21.20;;;18.00;;
15012;SDS011;7603;49.432;11.418;2024-03-06T10:11:40;22.02;;;19.00;;
15012;SDS011;7603;49.432;11.418;2024-03-06T10:14:07;22.38;;;18.75;;
15012;SDS011;7603;49.432;11.418;2024-03-06T10:16:35;22.40;;;17.88;;
15012;SDS011;7603;49.432;11.418;2024-03-06T10:19:16;23.20;;;18.58;;
15012;SDS011;7603;49.432;11.418;2024-03-06T10:21:43;21.17;;;18.92;;
15012;SDS011;7603;49.432;11.418;2024-03-06T10:24:11;25.15;;;18.80;;
15012;SDS011;7603;49.432;11.418;2024-03-06T10:26:37;23.13;;;18.92;;
15012;SDS011;7603;49.432;11.418;2024-03-06T10:29:03;24.48;;;19.23;;
15012;SDS011;7603;49.432;11.418;2024-03-06T10:31:29;22.48;;;17.85;;
15012;SDS011;7603;49.432;11.418;2024-03-06T10:33:54;30.13;;;20.40;;
15012;SDS011;7603;49.432;11.418;2024-03-06T10:36:20;25.10;;;20.10;;
15012;SDS011;7603;49.432;11.418;2024-03-06T10:38:46;25.90;;;20.15;;
15012;SDS011;7603;49.432;11.418;2024-03-06T10:41:15;26.67;;;18.67;;
15012;SDS011;7603;49.432;11.418;2024-03-06T10:43:49;24.77;;;19.48;;
15012;SDS011;7603;49.432;11.418;2024-03-06T10:46:19;27.55;;;19.92;;
15012;SDS011;7603;49.432;11.418;2024-03-06T10:48:46;27.35;;;19.60;;
15012;SDS011;7603;49.432;11.418;2024-03-06T10:51:14;29.52;;;20.77;;
15012;SDS011;7603;49.432;11.418;2024-03-06T10:53:41;39.47;;;21.20;;
15012;SDS011;7603;49.432;11.418;2024-03-06T10:56:08;28.60;;;20.45;;
15012;SDS011;7603;49.432;11.418;2024-03-06T10:58:34;26.85;;;20.65;;
15012;SDS011;7603;49.432;11.418;2024-03-06T11:01:01;28.30;;;21.77;;
15012;SDS011;7603;49.432;11.418;2024-03-06T11:03:29;29.48;;;21.00;;
15012;SDS011;7603;49.432;11.418;2024-03-06T11:05:56;26.20;;;20.98;;
15012;SDS011;7603;49.432;11.418;2024-03-06T11:08:22;27.90;;;19.15;;
15012;SDS011;7603;49.432;11.418;2024-03-06T11:10:49;30.58;;;20.83;;
15012;SDS011;7603;49.432;11.418;2024-03-06T11:15:56;26.70;;;19.65;;
15012;SDS011;7603;49.432;11.418;2024-03-06T11:23:29;23.92;;;17.80;;
15012;SDS011;7603;49.432;11.418;2024-03-06T11:26:02;22.42;;;17.75;;
15012;SDS011;7603;49.432;11.418;2024-03-06T11:31:02;22.90;;;17.20;;
15012;SDS011;7603;49.432;11.418;2024-03-06T11:33:41;27.05;;;18.40;;
15012;SDS011;7603;49.432;11.418;2024-03-06T11:36:17;21.83;;;16.90;;
15012;SDS011;7603;49.432;11.418;2024-03-06T11:41:29;21.90;;;16.90;;
15012;SDS011;7603;49.432;11.418;2024-03-06T11:43:56;21.73;;;16.45;;
15012;SDS011;7603;49.432;11.418;2024-03-06T11:49:18;18.92;;;16.17;;
15012;SDS011;7603;49.432;11.418;2024-03-06T11:51:59;23.00;;;16.73;;
15012;SDS011;7603;49.432;11.418;2024-03-06T11:54:26;22.58;;;16.50;;
15012;SDS011;7603;49.432;11.418;2024-03-06T11:56:53;21.58;;;16.40;;
15012;SDS011;7603;49.432;11.418;2024-03-06T11:59:21;20.15;;;16.08;;
15012;SDS011;7603;49.432;11.418;2024-03-06T12:01:57;23.10;;;16.27;;
15012;SDS011;7603;49.432;11.418;2024-03-06T12:04:26;20.23;;;16.40;;
15012;SDS011;7603;49.432;11.418;2024-03-06T12:06:52;18.80;;;15.18;;
15012;SDS011;7603;49.432;11.418;2024-03-06T12:09:21;20.40;;;17.48;;
15012;SDS011;7603;49.432;11.418;2024-03-06T12:11:47;20.50;;;15.75;;
15012;SDS011;7603;49.432;11.418;2024-03-06T12:14:13;21.10;;;16.75;;
15012;SDS011;7603;49.432;11.418;2024-03-06T12:16:41;17.05;;;14.43;;
15012;SDS011;7603;49.432;11.418;2024-03-06T12:19:07;17.83;;;15.07;;
15012;SDS011;7603;49.432;11.418;2024-03-06T12:21:34;20.92;;;16.50;;
15012;SDS011;7603;49.432;11.418;2024-03-06T12:24:04;19.52;;;15.45;;
15012;SDS011;7603;49.432;11.418;2024-03-06T12:26:30;19.63;;;15.43;;
15012;SDS011;7603;49.432;11.418;2024-03-06T12:29:09;21.60;;;16.17;;
15012;SDS011;7603;49.432;11.418;2024-03-06T12:31:36;19.58;;;16.05;;
15012;SDS011;7603;49.432;11.418;2024-03-06T12:34:04;20.80;;;16.20;;
15012;SDS011;7603;49.432;11.418;2024-03-06T12:36:31;18.65;;;15.40;;
15012;SDS011;7603;49.432;11.418;2024-03-06T12:39:02;20.67;;;16.65;;
15012;SDS011;7603;49.432;11.418;2024-03-06T12:41:28;20.40;;;15.93;;
15012;SDS011;7603;49.432;11.418;2024-03-06T12:43:55;20.08;;;15.10;;
15012;SDS011;7603;49.432;11.418;2024-03-06T12:46:21;19.42;;;14.95;;
15012;SDS011;7603;49.432;11.418;2024-03-06T12:48:47;22.35;;;15.35;;
15012;SDS011;7603;49.432;11.418;2024-03-06T12:51:13;26.02;;;15.52;;
15012;SDS011;7603;49.432;11.418;2024-03-06T12:53:39;21.10;;;16.00;;
15012;SDS011;7603;49.432;11.418;2024-03-06T12:56:05;18.50;;;16.17;;
15012;SDS011;7603;49.432;11.418;2024-03-06T12:58:31;18.05;;;14.90;;
15012;SDS011;7603;49.432;11.418;2024-03-06T13:00:57;19.33;;;15.45;;
15012;SDS011;7603;49.432;11.418;2024-03-06T13:03:23;18.13;;;14.85;;
15012;SDS011;7603;49.432;11.418;2024-03-06T13:05:49;20.67;;;16.08;;
15012;SDS011;7603;49.432;11.418;2024-03-06T13:08:15;19.05;;;15.07;;
15012;SDS011;7603;49.432;11.418;2024-03-06T13:10:41;17.92;;;15.32;;
15012;SDS011;7603;49.432;11.418;2024-03-06T13:13:07;19.02;;;14.85;;
15012;SDS011;7603;49.432;11.418;2024-03-06T13:15:33;19.13;;;15.07;;
15012;SDS011;7603;49.432;11.418;2024-03-06T13:17:59;17.05;;;13.75;;
15012;SDS011;7603;49.432;11.418;2024-03-06T13:20:28;18.38;;;15.00;;
15012;SDS011;7603;49.432;11.418;2024-03-06T13:22:57;19.48;;;15.70;;
15012;SDS011;7603;49.432;11.418;2024-03-06T13:25:23;18.90;;;15.55;;
15012;SDS011;7603;49.432;11.418;2024-03-06T13:27:49;17.38;;;14.68;;
15012;SDS011;7603;49.432;11.418;2024-03-06T13:30:17;18.13;;;14.60;;
15012;SDS011;7603;49.432;11.418;2024-03-06T13:32:43;17.15;;;13.85;;
15012;SDS011;7603;49.432;11.418;2024-03-06T13:35:10;17.02;;;13.57;;
15012;SDS011;7603;49.432;11.418;2024-03-06T13:37:39;17.10;;;14.75;;
15012;SDS011;7603;49.432;11.418;2024-03-06T13:40:08;21.05;;;16.02;;
15012;SDS011;7603;49.432;11.418;2024-03-06T13:42:35;22.05;;;15.57;;
15012;SDS011;7603;49.432;11.418;2024-03-06T13:45:02;16.00;;;13.85;;
15012;SDS011;7603;49.432;11.418;2024-03-06T13:47:28;17.05;;;14.80;;
15012;SDS011;7603;49.432;11.418;2024-03-06T13:49:54;16.83;;;14.57;;
15012;SDS011;7603;49.432;11.418;2024-03-06T13:52:20;16.27;;;14.57;;
15012;SDS011;7603;49.432;11.418;2024-03-06T13:54:46;21.30;;;15.90;;
15012;SDS011;7603;49.432;11.418;2024-03-06T13:57:13;17.95;;;13.82;;
15012;SDS011;7603;49.432;11.418;2024-03-06T13:59:39;17.45;;;15.55;;
15012;SDS011;7603;49.432;11.418;2024-03-06T14:02:06;20.50;;;14.63;;
15012;SDS011;7603;49.432;11.418;2024-03-06T14:04:32;18.67;;;16.80;;
15012;SDS011;7603;49.432;11.418;2024-03-06T14:06:57;17.02;;;14.57;;
15012;SDS011;7603;49.432;11.418;2024-03-06T14:09:24;17.63;;;14.23;;
15012;SDS011;7603;49.432;11.418;2024-03-06T14:11:50;16.08;;;13.07;;
15012;SDS011;7603;49.432;11.418;2024-03-06T14:14:16;15.63;;;13.63;;
15012;SDS011;7603;49.432;11.418;2024-03-06T14:16:43;14.27;;;12.63;;
15012;SDS011;7603;49.432;11.418;2024-03-06T14:19:08;16.98;;;13.93;;
15012;SDS011;7603;49.432;11.418;2024-03-06T14:21:34;14.90;;;12.85;;
15012;SDS011;7603;49.432;11.418;2024-03-06T14:24:00;18.02;;;13.73;;
15012;SDS011;7603;49.432;11.418;2024-03-06T14:26:30;15.20;;;12.55;;
15012;SDS011;7603;49.432;11.418;2024-03-06T14:28:57;13.90;;;12.25;;
15012;SDS011;7603;49.432;11.418;2024-03-06T14:31:23;14.45;;;12.95;;
15012;SDS011;7603;49.432;11.418;2024-03-06T14:33:49;16.08;;;13.73;;
15012;SDS011;7603;49.432;11.418;2024-03-06T14:36:15;16.50;;;12.43;;